sensor_id;sensor_type;location;lat;lon;timestamp;pressure;altitude;pressure_sealevel;temperature
11792;BMP180;5953;52.372;9.918;2023-12-20T00:01:27;100332.00;;;12.60
11792;BMP180;5953;52.372;9.918;2023-12-20T00:03:55;100338.00;;;12.60
11792;BMP180;5953;52.372;9.918;2023-12-20T00:06:25;100326.00;;;12.60
11792;BMP180;5953;52.372;9.918;2023-12-20T00:08:52;100345.00;;;12.50
11792;BMP180;5953;52.372;9.918;2023-12-20T00:11:20;100338.00;;;12.50
11792;BMP180;5953;52.372;9.918;2023-12-20T00:13:48;100331.00;;;12.40
11792;BMP180;5953;52.372;9.918;2023-12-20T00:16:17;100330.00;;;12.40
11792;BMP180;5953;52.372;9.918;2023-12-20T00:18:45;100334.00;;;12.70
11792;BMP180;5953;52.372;9.918;2023-12-20T00:21:13;100323.00;;;12.80
11792;BMP180;5953;52.372;9.918;2023-12-20T00:23:42;100334.00;;;12.90
11792;BMP180;5953;52.372;9.918;2023-12-20T00:26:10;100349.00;;;12.90
11792;BMP180;5953;52.372;9.918;2023-12-20T00:28:38;100349.00;;;12.90
11792;BMP180;5953;52.372;9.918;2023-12-20T00:31:06;100341.00;;;12.90
11792;BMP180;5953;52.372;9.918;2023-12-20T00:33:34;100360.00;;;12.90
11792;BMP180;5953;52.372;9.918;2023-12-20T00:36:03;100352.00;;;12.70
11792;BMP180;5953;52.372;9.918;2023-12-20T00:38:32;100350.00;;;12.60
11792;BMP180;5953;52.372;9.918;2023-12-20T00:41:01;100349.00;;;12.70
11792;BMP180;5953;52.372;9.918;2023-12-20T00:43:31;100354.00;;;12.60
11792;BMP180;5953;52.372;9.918;2023-12-20T00:45:59;100346.00;;;12.80
11792;BMP180;5953;52.372;9.918;2023-12-20T00:48:30;100354.00;;;12.60
11792;BMP180;5953;52.372;9.918;2023-12-20T00:50:58;100362.00;;;12.60
11792;BMP180;5953;52.372;9.918;2023-12-20T00:53:25;100378.00;;;12.70
11792;BMP180;5953;52.372;9.918;2023-12-20T00:55:53;100362.00;;;12.80
11792;BMP180;5953;52.372;9.918;2023-12-20T00:58:23;100359.00;;;12.60
11792;BMP180;5953;52.372;9.918;2023-12-20T01:00:50;100362.00;;;12.70
11792;BMP180;5953;52.372;9.918;2023-12-20T01:03:19;100359.00;;;12.60
11792;BMP180;5953;52.372;9.918;2023-12-20T01:05:46;100350.00;;;12.60
11792;BMP180;5953;52.372;9.918;2023-12-20T01:08:14;100350.00;;;12.60
11792;BMP180;5953;52.372;9.918;2023-12-20T01:10:42;100342.00;;;12.50
11792;BMP180;5953;52.372;9.918;2023-12-20T01:13:10;100344.00;;;12.50
11792;BMP180;5953;52.372;9.918;2023-12-20T01:15:39;100354.00;;;12.60
11792;BMP180;5953;52.372;9.918;2023-12-20T01:18:07;100336.00;;;12.20
11792;BMP180;5953;52.372;9.918;2023-12-20T01:20:35;100344.00;;;12.30
11792;BMP180;5953;52.372;9.918;2023-12-20T01:23:03;100336.00;;;12.40
11792;BMP180;5953;52.372;9.918;2023-12-20T01:25:31;100340.00;;;12.10
11792;BMP180;5953;52.372;9.918;2023-12-20T01:27:59;100344.00;;;12.30
11792;BMP180;5953;52.372;9.918;2023-12-20T01:30:27;100344.00;;;12.20
11792;BMP180;5953;52.372;9.918;2023-12-20T01:32:56;100351.00;;;12.20
11792;BMP180;5953;52.372;9.918;2023-12-20T01:35:24;100343.00;;;12.10
11792;BMP180;5953;52.372;9.918;2023-12-20T01:37:52;100341.00;;;12.10
11792;BMP180;5953;52.372;9.918;2023-12-20T01:40:23;100346.00;;;12.10
11792;BMP180;5953;52.372;9.918;2023-12-20T01:42:58;100359.00;;;12.00
11792;BMP180;5953;52.372;9.918;2023-12-20T01:45:26;100358.00;;;12.00
11792;BMP180;5953;52.372;9.918;2023-12-20T01:47:54;100355.00;;;12.20
11792;BMP180;5953;52.372;9.918;2023-12-20T01:50:24;100374.00;;;12.10
11792;BMP180;5953;52.372;9.918;2023-12-20T01:52:55;100352.00;;;12.00
11792;BMP180;5953;52.372;9.918;2023-12-20T01:55:25;100354.00;;;12.00
11792;BMP180;5953;52.372;9.918;2023-12-20T01:57:53;100347.00;;;12.20
11792;BMP180;5953;52.372;9.918;2023-12-20T02:00:21;100354.00;;;11.90
11792;BMP180;5953;52.372;9.918;2023-12-20T02:02:53;100360.00;;;11.70
11792;BMP180;5953;52.372;9.918;2023-12-20T02:05:21;100351.00;;;11.70
11792;BMP180;5953;52.372;9.918;2023-12-20T02:07:51;100366.00;;;11.70
11792;BMP180;5953;52.372;9.918;2023-12-20T02:10:19;100355.00;;;11.50
11792;BMP180;5953;52.372;9.918;2023-12-20T02:12:47;100359.00;;;11.70
11792;BMP180;5953;52.372;9.918;2023-12-20T02:15:15;100353.00;;;11.70
11792;BMP180;5953;52.372;9.918;2023-12-20T02:17:43;100366.00;;;11.50
11792;BMP180;5953;52.372;9.918;2023-12-20T02:20:11;100361.00;;;11.30
11792;BMP180;5953;52.372;9.918;2023-12-20T02:22:41;100344.00;;;11.30
11792;BMP180;5953;52.372;9.918;2023-12-20T02:25:09;100346.00;;;11.00
11792;BMP180;5953;52.372;9.918;2023-12-20T02:27:37;100340.00;;;11.10
11792;BMP180;5953;52.372;9.918;2023-12-20T02:30:05;100325.00;;;11.10
11792;BMP180;5953;52.372;9.918;2023-12-20T02:32:34;100318.00;;;11.10
11792;BMP180;5953;52.372;9.918;2023-12-20T02:35:02;100320.00;;;11.20
11792;BMP180;5953;52.372;9.918;2023-12-20T02:37:32;100324.00;;;11.00
11792;BMP180;5953;52.372;9.918;2023-12-20T02:40:02;100325.00;;;11.20
11792;BMP180;5953;52.372;9.918;2023-12-20T02:42:31;100330.00;;;11.10
11792;BMP180;5953;52.372;9.918;2023-12-20T02:44:58;100334.00;;;11.20
11792;BMP180;5953;52.372;9.918;2023-12-20T02:47:34;100323.00;;;10.90
11792;BMP180;5953;52.372;9.918;2023-12-20T02:50:02;100324.00;;;11.00
11792;BMP180;5953;52.372;9.918;2023-12-20T02:52:32;100323.00;;;11.00
11792;BMP180;5953;52.372;9.918;2023-12-20T02:55:02;100330.00;;;10.90
11792;BMP180;5953;52.372;9.918;2023-12-20T02:57:30;100306.00;;;10.70
11792;BMP180;5953;52.372;9.918;2023-12-20T03:00:00;100315.00;;;10.90
11792;BMP180;5953;52.372;9.918;2023-12-20T03:02:28;100316.00;;;10.60
11792;BMP180;5953;52.372;9.918;2023-12-20T03:04:55;100311.00;;;10.80
11792;BMP180;5953;52.372;9.918;2023-12-20T03:07:23;100288.00;;;10.60
11792;BMP180;5953;52.372;9.918;2023-12-20T03:09:51;100320.00;;;10.90
11792;BMP180;5953;52.372;9.918;2023-12-20T03:12:41;100307.00;;;10.80
11792;BMP180;5953;52.372;9.918;2023-12-20T03:15:09;100315.00;;;10.80
11792;BMP180;5953;52.372;9.918;2023-12-20T03:17:37;100293.00;;;10.60
11792;BMP180;5953;52.372;9.918;2023-12-20T03:20:06;100296.00;;;10.50
11792;BMP180;5953;52.372;9.918;2023-12-20T03:22:34;100283.00;;;10.60
11792;BMP180;5953;52.372;9.918;2023-12-20T03:25:02;100289.00;;;10.60
11792;BMP180;5953;52.372;9.918;2023-12-20T03:27:31;100287.00;;;10.70
11792;BMP180;5953;52.372;9.918;2023-12-20T03:30:00;100285.00;;;10.70
11792;BMP180;5953;52.372;9.918;2023-12-20T03:32:28;100278.00;;;10.50
11792;BMP180;5953;52.372;9.918;2023-12-20T03:34:55;100288.00;;;10.30
11792;BMP180;5953;52.372;9.918;2023-12-20T03:37:24;100269.00;;;10.40
11792;BMP180;5953;52.372;9.918;2023-12-20T03:39:52;100248.00;;;10.20
11792;BMP180;5953;52.372;9.918;2023-12-20T03:42:19;100265.00;;;10.20
11792;BMP180;5953;52.372;9.918;2023-12-20T03:44:47;100265.00;;;10.00
11792;BMP180;5953;52.372;9.918;2023-12-20T03:47:17;100254.00;;;10.20
11792;BMP180;5953;52.372;9.918;2023-12-20T03:49:44;100263.00;;;9.50
11792;BMP180;5953;52.372;9.918;2023-12-20T03:52:13;100252.00;;;10.00
11792;BMP180;5953;52.372;9.918;2023-12-20T03:54:41;100254.00;;;9.70
11792;BMP180;5953;52.372;9.918;2023-12-20T03:57:09;100250.00;;;10.10
11792;BMP180;5953;52.372;9.918;2023-12-20T03:59:37;100239.00;;;10.10
11792;BMP180;5953;52.372;9.918;2023-12-20T04:02:05;100257.00;;;9.90
11792;BMP180;5953;52.372;9.918;2023-12-20T04:04:34;100255.00;;;9.70
11792;BMP180;5953;52.372;9.918;2023-12-20T04:07:03;100258.00;;;9.80
11792;BMP180;5953;52.372;9.918;2023-12-20T04:09:34;100249.00;;;9.80
11792;BMP180;5953;52.372;9.918;2023-12-20T04:12:02;100248.00;;;9.70
11792;BMP180;5953;52.372;9.918;2023-12-20T04:14:34;100243.00;;;9.50
11792;BMP180;5953;52.372;9.918;2023-12-20T04:17:02;100252.00;;;9.60
11792;BMP180;5953;52.372;9.918;2023-12-20T04:19:30;100246.00;;;9.50
11792;BMP180;5953;52.372;9.918;2023-12-20T04:21:59;100248.00;;;9.50
11792;BMP180;5953;52.372;9.918;2023-12-20T04:24:27;100258.00;;;9.60
11792;BMP180;5953;52.372;9.918;2023-12-20T04:26:55;100253.00;;;9.50
11792;BMP180;5953;52.372;9.918;2023-12-20T04:29:23;100247.00;;;9.50
11792;BMP180;5953;52.372;9.918;2023-12-20T04:31:51;100264.00;;;9.50
11792;BMP180;5953;52.372;9.918;2023-12-20T04:34:19;100221.00;;;9.60
11792;BMP180;5953;52.372;9.918;2023-12-20T04:36:47;100241.00;;;9.80
11792;BMP180;5953;52.372;9.918;2023-12-20T04:39:16;100242.00;;;9.60
11792;BMP180;5953;52.372;9.918;2023-12-20T04:41:44;100238.00;;;9.60
11792;BMP180;5953;52.372;9.918;2023-12-20T04:44:14;100223.00;;;9.90
11792;BMP180;5953;52.372;9.918;2023-12-20T04:46:42;100234.00;;;9.80
11792;BMP180;5953;52.372;9.918;2023-12-20T04:49:10;100227.00;;;9.80
11792;BMP180;5953;52.372;9.918;2023-12-20T04:51:37;100232.00;;;9.70
11792;BMP180;5953;52.372;9.918;2023-12-20T04:54:06;100205.00;;;9.90
11792;BMP180;5953;52.372;9.918;2023-12-20T04:56:36;100220.00;;;9.70
11792;BMP180;5953;52.372;9.918;2023-12-20T04:59:03;100245.00;;;10.10
11792;BMP180;5953;52.372;9.918;2023-12-20T05:01:32;100229.00;;;10.20
11792;BMP180;5953;52.372;9.918;2023-12-20T05:04:00;100228.00;;;10.20
11792;BMP180;5953;52.372;9.918;2023-12-20T05:06:28;100238.00;;;10.20
11792;BMP180;5953;52.372;9.918;2023-12-20T05:08:56;100199.00;;;10.20
11792;BMP180;5953;52.372;9.918;2023-12-20T05:11:24;100181.00;;;10.20
11792;BMP180;5953;52.372;9.918;2023-12-20T05:13:53;100216.00;;;10.30
11792;BMP180;5953;52.372;9.918;2023-12-20T05:16:21;100232.00;;;10.10
11792;BMP180;5953;52.372;9.918;2023-12-20T05:18:49;100217.00;;;10.10
11792;BMP180;5953;52.372;9.918;2023-12-20T05:21:21;100226.00;;;10.10
11792;BMP180;5953;52.372;9.918;2023-12-20T05:23:49;100227.00;;;10.20
11792;BMP180;5953;52.372;9.918;2023-12-20T05:26:17;100226.00;;;10.40
11792;BMP180;5953;52.372;9.918;2023-12-20T05:28:45;100224.00;;;10.20
11792;BMP180;5953;52.372;9.918;2023-12-20T05:31:15;100197.00;;;10.30
11792;BMP180;5953;52.372;9.918;2023-12-20T05:33:43;100181.00;;;10.40
11792;BMP180;5953;52.372;9.918;2023-12-20T05:36:11;100211.00;;;10.20
11792;BMP180;5953;52.372;9.918;2023-12-20T05:38:40;100213.00;;;10.00
11792;BMP180;5953;52.372;9.918;2023-12-20T05:41:11;100213.00;;;9.90
11792;BMP180;5953;52.372;9.918;2023-12-20T05:43:42;100206.00;;;10.10
11792;BMP180;5953;52.372;9.918;2023-12-20T05:46:10;100191.00;;;10.10
11792;BMP180;5953;52.372;9.918;2023-12-20T05:48:40;100232.00;;;9.90
11792;BMP180;5953;52.372;9.918;2023-12-20T05:51:11;100228.00;;;10.40
11792;BMP180;5953;52.372;9.918;2023-12-20T05:53:39;100223.00;;;10.30
11792;BMP180;5953;52.372;9.918;2023-12-20T05:56:07;100218.00;;;10.30
11792;BMP180;5953;52.372;9.918;2023-12-20T05:58:38;100223.00;;;10.40
11792;BMP180;5953;52.372;9.918;2023-12-20T06:01:06;100229.00;;;10.30
11792;BMP180;5953;52.372;9.918;2023-12-20T06:03:42;100226.00;;;10.60
11792;BMP180;5953;52.372;9.918;2023-12-20T06:06:10;100224.00;;;10.30
11792;BMP180;5953;52.372;9.918;2023-12-20T06:08:43;100223.00;;;10.40
11792;BMP180;5953;52.372;9.918;2023-12-20T06:11:11;100229.00;;;10.30
11792;BMP180;5953;52.372;9.918;2023-12-20T06:13:40;100225.00;;;10.30
11792;BMP180;5953;52.372;9.918;2023-12-20T06:16:08;100220.00;;;10.10
11792;BMP180;5953;52.372;9.918;2023-12-20T06:18:36;100226.00;;;10.20
11792;BMP180;5953;52.372;9.918;2023-12-20T06:21:08;100220.00;;;10.30
11792;BMP180;5953;52.372;9.918;2023-12-20T06:23:39;100205.00;;;10.20
11792;BMP180;5953;52.372;9.918;2023-12-20T06:26:07;100202.00;;;10.40
11792;BMP180;5953;52.372;9.918;2023-12-20T06:28:37;100211.00;;;10.40
11792;BMP180;5953;52.372;9.918;2023-12-20T06:31:08;100223.00;;;10.40
11792;BMP180;5953;52.372;9.918;2023-12-20T06:33:36;100216.00;;;10.40
11792;BMP180;5953;52.372;9.918;2023-12-20T06:36:06;100210.00;;;10.20
11792;BMP180;5953;52.372;9.918;2023-12-20T06:38:34;100226.00;;;10.20
11792;BMP180;5953;52.372;9.918;2023-12-20T06:41:02;100210.00;;;10.40
11792;BMP180;5953;52.372;9.918;2023-12-20T06:43:29;100211.00;;;10.10
11792;BMP180;5953;52.372;9.918;2023-12-20T06:46:15;100209.00;;;10.40
11792;BMP180;5953;52.372;9.918;2023-12-20T06:48:43;100198.00;;;10.20
11792;BMP180;5953;52.372;9.918;2023-12-20T06:51:17;100200.00;;;10.10
11792;BMP180;5953;52.372;9.918;2023-12-20T06:53:46;100193.00;;;9.90
11792;BMP180;5953;52.372;9.918;2023-12-20T06:56:14;100213.00;;;10.20
11792;BMP180;5953;52.372;9.918;2023-12-20T06:58:45;100207.00;;;10.20
11792;BMP180;5953;52.372;9.918;2023-12-20T07:01:14;100157.00;;;10.10
11792;BMP180;5953;52.372;9.918;2023-12-20T07:03:42;100212.00;;;10.30
11792;BMP180;5953;52.372;9.918;2023-12-20T07:06:10;100192.00;;;10.40
11792;BMP180;5953;52.372;9.918;2023-12-20T07:08:40;100201.00;;;10.30
11792;BMP180;5953;52.372;9.918;2023-12-20T07:11:08;100202.00;;;10.30
11792;BMP180;5953;52.372;9.918;2023-12-20T07:13:37;100197.00;;;10.30
11792;BMP180;5953;52.372;9.918;2023-12-20T07:16:06;100198.00;;;9.90
11792;BMP180;5953;52.372;9.918;2023-12-20T07:18:34;100189.00;;;10.20
11792;BMP180;5953;52.372;9.918;2023-12-20T07:21:02;100199.00;;;10.10
11792;BMP180;5953;52.372;9.918;2023-12-20T07:23:31;100198.00;;;9.90
11792;BMP180;5953;52.372;9.918;2023-12-20T07:26:00;100198.00;;;9.80
11792;BMP180;5953;52.372;9.918;2023-12-20T07:28:28;100185.00;;;10.20
11792;BMP180;5953;52.372;9.918;2023-12-20T07:30:56;100174.00;;;10.10
11792;BMP180;5953;52.372;9.918;2023-12-20T07:33:24;100184.00;;;10.00
11792;BMP180;5953;52.372;9.918;2023-12-20T07:35:52;100196.00;;;9.90
11792;BMP180;5953;52.372;9.918;2023-12-20T07:38:20;100206.00;;;9.80
11792;BMP180;5953;52.372;9.918;2023-12-20T07:40:48;100194.00;;;10.10
11792;BMP180;5953;52.372;9.918;2023-12-20T07:43:17;100202.00;;;9.90
11792;BMP180;5953;52.372;9.918;2023-12-20T07:45:45;100212.00;;;10.00
11792;BMP180;5953;52.372;9.918;2023-12-20T07:48:13;100201.00;;;9.80
11792;BMP180;5953;52.372;9.918;2023-12-20T07:50:42;100192.00;;;9.70
11792;BMP180;5953;52.372;9.918;2023-12-20T07:53:10;100159.00;;;9.80
11792;BMP180;5953;52.372;9.918;2023-12-20T07:55:39;100206.00;;;9.80
11792;BMP180;5953;52.372;9.918;2023-12-20T07:58:07;100207.00;;;9.40
11792;BMP180;5953;52.372;9.918;2023-12-20T08:00:38;100204.00;;;9.70
11792;BMP180;5953;52.372;9.918;2023-12-20T08:03:06;100210.00;;;9.70
11792;BMP180;5953;52.372;9.918;2023-12-20T08:05:38;100178.00;;;9.60
11792;BMP180;5953;52.372;9.918;2023-12-20T08:08:06;100199.00;;;9.70
11792;BMP180;5953;52.372;9.918;2023-12-20T08:10:36;100192.00;;;9.70
11792;BMP180;5953;52.372;9.918;2023-12-20T08:13:04;100188.00;;;9.60
11792;BMP180;5953;52.372;9.918;2023-12-20T08:15:33;100184.00;;;9.80
11792;BMP180;5953;52.372;9.918;2023-12-20T08:18:03;100172.00;;;9.60
11792;BMP180;5953;52.372;9.918;2023-12-20T08:20:31;100159.00;;;9.40
11792;BMP180;5953;52.372;9.918;2023-12-20T08:23:06;100206.00;;;9.50
11792;BMP180;5953;52.372;9.918;2023-12-20T08:25:34;100200.00;;;9.50
11792;BMP180;5953;52.372;9.918;2023-12-20T08:28:02;100187.00;;;9.60
11792;BMP180;5953;52.372;9.918;2023-12-20T08:30:31;100184.00;;;9.40
11792;BMP180;5953;52.372;9.918;2023-12-20T08:32:59;100190.00;;;9.80
11792;BMP180;5953;52.372;9.918;2023-12-20T08:35:29;100187.00;;;9.60
11792;BMP180;5953;52.372;9.918;2023-12-20T08:37:57;100175.00;;;9.70
11792;BMP180;5953;52.372;9.918;2023-12-20T08:40:24;100164.00;;;9.50
11792;BMP180;5953;52.372;9.918;2023-12-20T08:42:53;100172.00;;;9.30
11792;BMP180;5953;52.372;9.918;2023-12-20T08:45:22;100159.00;;;9.70
11792;BMP180;5953;52.372;9.918;2023-12-20T08:47:50;100145.00;;;9.60
11792;BMP180;5953;52.372;9.918;2023-12-20T08:50:18;100150.00;;;9.70
11792;BMP180;5953;52.372;9.918;2023-12-20T08:52:48;100147.00;;;9.80
11792;BMP180;5953;52.372;9.918;2023-12-20T08:55:16;100165.00;;;9.60
11792;BMP180;5953;52.372;9.918;2023-12-20T08:57:45;100153.00;;;9.60
11792;BMP180;5953;52.372;9.918;2023-12-20T09:00:14;100168.00;;;9.80
11792;BMP180;5953;52.372;9.918;2023-12-20T09:02:42;100147.00;;;9.70
11792;BMP180;5953;52.372;9.918;2023-12-20T09:05:12;100146.00;;;9.90
11792;BMP180;5953;52.372;9.918;2023-12-20T09:07:40;100147.00;;;10.00
11792;BMP180;5953;52.372;9.918;2023-12-20T09:10:10;100119.00;;;9.70
11792;BMP180;5953;52.372;9.918;2023-12-20T09:12:38;100148.00;;;10.00
11792;BMP180;5953;52.372;9.918;2023-12-20T09:15:08;100116.00;;;10.00
11792;BMP180;5953;52.372;9.918;2023-12-20T09:17:36;100117.00;;;9.90
11792;BMP180;5953;52.372;9.918;2023-12-20T09:20:05;100127.00;;;10.10
11792;BMP180;5953;52.372;9.918;2023-12-20T09:22:35;100119.00;;;10.10
11792;BMP180;5953;52.372;9.918;2023-12-20T09:25:05;100116.00;;;10.10
11792;BMP180;5953;52.372;9.918;2023-12-20T09:27:35;100116.00;;;10.10
11792;BMP180;5953;52.372;9.918;2023-12-20T09:30:03;100105.00;;;10.10
11792;BMP180;5953;52.372;9.918;2023-12-20T09:32:32;100110.00;;;10.10
11792;BMP180;5953;52.372;9.918;2023-12-20T09:35:00;100127.00;;;10.20
11792;BMP180;5953;52.372;9.918;2023-12-20T09:37:28;100134.00;;;10.10
11792;BMP180;5953;52.372;9.918;2023-12-20T09:39:56;100120.00;;;10.10
11792;BMP180;5953;52.372;9.918;2023-12-20T09:42:33;100104.00;;;10.20
11792;BMP180;5953;52.372;9.918;2023-12-20T09:45:08;100118.00;;;10.10
11792;BMP180;5953;52.372;9.918;2023-12-20T09:47:37;100114.00;;;10.20
11792;BMP180;5953;52.372;9.918;2023-12-20T09:50:06;100117.00;;;10.10
11792;BMP180;5953;52.372;9.918;2023-12-20T09:52:36;100077.00;;;10.10
11792;BMP180;5953;52.372;9.918;2023-12-20T09:55:04;100106.00;;;10.20
11792;BMP180;5953;52.372;9.918;2023-12-20T09:57:34;100094.00;;;10.40
11792;BMP180;5953;52.372;9.918;2023-12-20T10:00:02;100094.00;;;9.90
11792;BMP180;5953;52.372;9.918;2023-12-20T10:02:32;100100.00;;;10.30
11792;BMP180;5953;52.372;9.918;2023-12-20T10:05:02;100085.00;;;10.30
11792;BMP180;5953;52.372;9.918;2023-12-20T10:07:31;100091.00;;;10.40
11792;BMP180;5953;52.372;9.918;2023-12-20T10:09:59;100089.00;;;10.40
11792;BMP180;5953;52.372;9.918;2023-12-20T10:12:27;100086.00;;;10.30
11792;BMP180;5953;52.372;9.918;2023-12-20T10:14:57;100079.00;;;10.40
11792;BMP180;5953;52.372;9.918;2023-12-20T10:17:27;100064.00;;;10.40
11792;BMP180;5953;52.372;9.918;2023-12-20T10:19:57;100069.00;;;10.50
11792;BMP180;5953;52.372;9.918;2023-12-20T10:22:26;100063.00;;;10.40
11792;BMP180;5953;52.372;9.918;2023-12-20T10:24:56;100074.00;;;10.30
11792;BMP180;5953;52.372;9.918;2023-12-20T10:27:24;100067.00;;;10.40
11792;BMP180;5953;52.372;9.918;2023-12-20T10:29:52;100069.00;;;10.30
11792;BMP180;5953;52.372;9.918;2023-12-20T10:32:24;100050.00;;;10.50
11792;BMP180;5953;52.372;9.918;2023-12-20T10:34:53;100084.00;;;10.40
11792;BMP180;5953;52.372;9.918;2023-12-20T10:37:23;100050.00;;;10.50
11792;BMP180;5953;52.372;9.918;2023-12-20T10:39:53;100043.00;;;10.70
11792;BMP180;5953;52.372;9.918;2023-12-20T10:42:26;100051.00;;;10.60
11792;BMP180;5953;52.372;9.918;2023-12-20T10:44:54;100050.00;;;10.40
11792;BMP180;5953;52.372;9.918;2023-12-20T10:47:22;100063.00;;;10.50
11792;BMP180;5953;52.372;9.918;2023-12-20T10:49:52;100053.00;;;10.60
11792;BMP180;5953;52.372;9.918;2023-12-20T10:52:23;100022.00;;;10.50
11792;BMP180;5953;52.372;9.918;2023-12-20T10:54:51;100030.00;;;10.60
11792;BMP180;5953;52.372;9.918;2023-12-20T10:57:20;100034.00;;;10.70
11792;BMP180;5953;52.372;9.918;2023-12-20T10:59:52;100049.00;;;10.90
11792;BMP180;5953;52.372;9.918;2023-12-20T11:02:21;100030.00;;;10.80
11792;BMP180;5953;52.372;9.918;2023-12-20T11:04:53;100018.00;;;10.60
11792;BMP180;5953;52.372;9.918;2023-12-20T11:07:29;100030.00;;;10.40
11792;BMP180;5953;52.372;9.918;2023-12-20T11:10:09;100037.00;;;10.30
11792;BMP180;5953;52.372;9.918;2023-12-20T11:12:45;100032.00;;;10.50
11792;BMP180;5953;52.372;9.918;2023-12-20T11:15:14;100014.00;;;10.40
11792;BMP180;5953;52.372;9.918;2023-12-20T11:17:44;100000.00;;;10.30
11792;BMP180;5953;52.372;9.918;2023-12-20T11:20:17;99994.00;;;10.70
11792;BMP180;5953;52.372;9.918;2023-12-20T11:22:54;100025.00;;;10.50
11792;BMP180;5953;52.372;9.918;2023-12-20T11:25:23;100012.00;;;10.10
11792;BMP180;5953;52.372;9.918;2023-12-20T11:28:07;100031.00;;;10.50
11792;BMP180;5953;52.372;9.918;2023-12-20T11:30:46;100024.00;;;10.40
11792;BMP180;5953;52.372;9.918;2023-12-20T11:33:15;100021.00;;;10.50
11792;BMP180;5953;52.372;9.918;2023-12-20T11:35:45;100027.00;;;10.10
11792;BMP180;5953;52.372;9.918;2023-12-20T11:38:15;100027.00;;;10.50
11792;BMP180;5953;52.372;9.918;2023-12-20T11:40:43;100043.00;;;10.40
11792;BMP180;5953;52.372;9.918;2023-12-20T11:43:11;100006.00;;;10.50
11792;BMP180;5953;52.372;9.918;2023-12-20T11:45:49;100041.00;;;10.50
11792;BMP180;5953;52.372;9.918;2023-12-20T11:48:18;100059.00;;;10.40
11792;BMP180;5953;52.372;9.918;2023-12-20T11:51:01;100050.00;;;10.50
11792;BMP180;5953;52.372;9.918;2023-12-20T11:53:31;100056.00;;;10.70
11792;BMP180;5953;52.372;9.918;2023-12-20T11:56:00;100051.00;;;10.50
11792;BMP180;5953;52.372;9.918;2023-12-20T11:58:29;100069.00;;;10.20
11792;BMP180;5953;52.372;9.918;2023-12-20T12:00:57;100048.00;;;10.20
11792;BMP180;5953;52.372;9.918;2023-12-20T12:03:26;100049.00;;;10.20
11792;BMP180;5953;52.372;9.918;2023-12-20T12:05:54;100044.00;;;10.40
11792;BMP180;5953;52.372;9.918;2023-12-20T12:08:37;100041.00;;;10.10
11792;BMP180;5953;52.372;9.918;2023-12-20T12:11:05;100033.00;;;9.90
11792;BMP180;5953;52.372;9.918;2023-12-20T12:13:33;100035.00;;;10.00
11792;BMP180;5953;52.372;9.918;2023-12-20T12:16:02;100032.00;;;10.10
11792;BMP180;5953;52.372;9.918;2023-12-20T12:18:30;100036.00;;;9.90
11792;BMP180;5953;52.372;9.918;2023-12-20T12:21:01;100020.00;;;9.90
11792;BMP180;5953;52.372;9.918;2023-12-20T12:23:39;100029.00;;;10.00
11792;BMP180;5953;52.372;9.918;2023-12-20T12:26:07;100027.00;;;10.00
11792;BMP180;5953;52.372;9.918;2023-12-20T12:28:35;100038.00;;;10.00
11792;BMP180;5953;52.372;9.918;2023-12-20T12:31:03;100034.00;;;9.80
11792;BMP180;5953;52.372;9.918;2023-12-20T12:33:31;100032.00;;;9.70
11792;BMP180;5953;52.372;9.918;2023-12-20T12:35:59;100029.00;;;9.70
11792;BMP180;5953;52.372;9.918;2023-12-20T12:38:27;100038.00;;;9.60
11792;BMP180;5953;52.372;9.918;2023-12-20T12:40:57;100013.00;;;9.90
11792;BMP180;5953;52.372;9.918;2023-12-20T12:43:25;100019.00;;;9.90
11792;BMP180;5953;52.372;9.918;2023-12-20T12:45:53;100000.00;;;9.70
11792;BMP180;5953;52.372;9.918;2023-12-20T12:48:22;100005.00;;;9.70
11792;BMP180;5953;52.372;9.918;2023-12-20T12:50:55;100015.00;;;9.70
11792;BMP180;5953;52.372;9.918;2023-12-20T12:53:25;100010.00;;;9.40
11792;BMP180;5953;52.372;9.918;2023-12-20T12:55:54;100020.00;;;10.00
11792;BMP180;5953;52.372;9.918;2023-12-20T12:58:23;100013.00;;;9.90
11792;BMP180;5953;52.372;9.918;2023-12-20T13:00:52;100005.00;;;9.90
11792;BMP180;5953;52.372;9.918;2023-12-20T13:03:20;100018.00;;;9.70
11792;BMP180;5953;52.372;9.918;2023-12-20T13:05:48;100002.00;;;9.80
11792;BMP180;5953;52.372;9.918;2023-12-20T13:08:16;100016.00;;;9.80
11792;BMP180;5953;52.372;9.918;2023-12-20T13:10:44;100000.00;;;9.60
11792;BMP180;5953;52.372;9.918;2023-12-20T13:13:12;100010.00;;;9.60
11792;BMP180;5953;52.372;9.918;2023-12-20T13:15:42;100022.00;;;9.60
11792;BMP180;5953;52.372;9.918;2023-12-20T13:18:14;100004.00;;;9.40
11792;BMP180;5953;52.372;9.918;2023-12-20T13:20:45;100021.00;;;9.60
11792;BMP180;5953;52.372;9.918;2023-12-20T13:23:13;100024.00;;;9.70
11792;BMP180;5953;52.372;9.918;2023-12-20T13:25:41;100017.00;;;9.70
11792;BMP180;5953;52.372;9.918;2023-12-20T13:28:09;100038.00;;;9.70
11792;BMP180;5953;52.372;9.918;2023-12-20T13:30:37;100011.00;;;9.30
11792;BMP180;5953;52.372;9.918;2023-12-20T13:33:06;99994.00;;;9.60
11792;BMP180;5953;52.372;9.918;2023-12-20T13:35:34;100010.00;;;9.70
11792;BMP180;5953;52.372;9.918;2023-12-20T13:38:02;100013.00;;;9.90
11792;BMP180;5953;52.372;9.918;2023-12-20T13:40:30;100019.00;;;9.70
11792;BMP180;5953;52.372;9.918;2023-12-20T13:42:58;100032.00;;;9.60
11792;BMP180;5953;52.372;9.918;2023-12-20T13:45:27;100024.00;;;9.80
11792;BMP180;5953;52.372;9.918;2023-12-20T13:47:55;100030.00;;;9.90
11792;BMP180;5953;52.372;9.918;2023-12-20T13:50:24;100017.00;;;10.00
11792;BMP180;5953;52.372;9.918;2023-12-20T13:52:53;100043.00;;;10.00
11792;BMP180;5953;52.372;9.918;2023-12-20T13:55:20;99998.00;;;10.10
11792;BMP180;5953;52.372;9.918;2023-12-20T13:57:51;100001.00;;;10.30
11792;BMP180;5953;52.372;9.918;2023-12-20T14:00:22;100031.00;;;10.10
11792;BMP180;5953;52.372;9.918;2023-12-20T14:02:49;100028.00;;;10.10
11792;BMP180;5953;52.372;9.918;2023-12-20T14:05:17;100034.00;;;10.10
11792;BMP180;5953;52.372;9.918;2023-12-20T14:07:48;100028.00;;;10.30
11792;BMP180;5953;52.372;9.918;2023-12-20T14:10:16;100029.00;;;10.40
11792;BMP180;5953;52.372;9.918;2023-12-20T14:12:44;100026.00;;;10.40
11792;BMP180;5953;52.372;9.918;2023-12-20T14:15:12;100016.00;;;10.50
11792;BMP180;5953;52.372;9.918;2023-12-20T14:17:40;100030.00;;;10.50
11792;BMP180;5953;52.372;9.918;2023-12-20T14:20:09;100024.00;;;10.50
11792;BMP180;5953;52.372;9.918;2023-12-20T14:22:39;100024.00;;;10.50